Wetterdaten: Woche 03.08.20 - 09.08.20 (KW32)
Datum Zeit Temp. Aussen Temp. o. S. Temp +5cm Feuchte Auss Luftdruck Regen Sonnenschein Regendauer Solar Windben Empfang
03.08.2020 00:00 16,3 C 13,7 C 13,8 C 76 % 1015,5 hPa 0,0 l/m 0,00 h 0,00 h 0 W/m 0,2 km/h (0 Bft) 96,65 %
03.08.2020 01:00 14,9 C 12,5 C 12,6 C 79 % 1015,4 hPa 0,0 l/m 0,00 h 0,00 h 0 W/m 0,3 km/h (0 Bft) 99,02 %
03.08.2020 02:00 13,8 C 11,5 C 11,8 C 82 % 1015,3 hPa 0,0 l/m 0,00 h 0,00 h 0 W/m 0,5 km/h (0 Bft) 95,82 %
03.08.2020 03:00 12,8 C 10,8 C 11,0 C 85 % 1014,9 hPa 0,0 l/m 0,00 h 0,00 h 0 W/m 0,3 km/h (0 Bft) 97,71 %
03.08.2020 04:00 12,0 C 10,0 C 10,4 C 87 % 1014,8 hPa 0,0 l/m 0,00 h 0,00 h 0 W/m 0,0 km/h (0 Bft) 96,79 %
03.08.2020 05:00 11,5 C 9,8 C 9,9 C 89 % 1014,7 hPa 0,0 l/m 0,00 h 0,00 h 0 W/m 0,1 km/h (0 Bft) 97,30 %
03.08.2020 06:00 11,1 C 10,2 C 10,1 C 92 % 1014,7 hPa 0,0 l/m 0,00 h 0,00 h 17 W/m 0,7 km/h (0 Bft) 95,99 %
03.08.2020 07:00 11,6 C 12,6 C 11,8 C 94 % 1014,6 hPa 0,0 l/m 0,00 h 0,00 h 52 W/m 0,1 km/h (0 Bft) 98,65 %
03.08.2020 08:00 13,4 C 16,8 C 14,9 C 97 % 1014,6 hPa 0,0 l/m 0,13 h 0,00 h 131 W/m 2,6 km/h (1 Bft) 96,66 %
03.08.2020 09:00 17,0 C 22,8 C 25,2 C 88 % 1014,5 hPa 0,0 l/m 1,00 h 0,00 h 406 W/m 5,2 km/h (1 Bft) 97,36 %
03.08.2020 10:00 21,3 C 26,0 C 29,5 C 63 % 1014,3 hPa 0,0 l/m 0,97 h 0,00 h 608 W/m 7,7 km/h (2 Bft) 97,51 %
03.08.2020 11:00 22,6 C 26,0 C 22,7 C 57 % 1014,0 hPa 0,0 l/m 0,97 h 0,00 h 554 W/m 6,9 km/h (2 Bft) 96,29 %
03.08.2020 12:00 23,7 C 27,9 C 23,1 C 56 % 1013,6 hPa 0,0 l/m 0,90 h 0,00 h 679 W/m 8,1 km/h (2 Bft) 99,50 %
03.08.2020 13:00 24,6 C 29,6 C 24,1 C 51 % 1013,1 hPa 0,0 l/m 1,00 h 0,00 h 891 W/m 10,7 km/h (2 Bft) 97,51 %
03.08.2020 14:00 26,1 C 30,2 C 27,6 C 48 % 1012,7 hPa 0,0 l/m 1,00 h 0,00 h 767 W/m 7,6 km/h (2 Bft) 96,43 %
03.08.2020 15:00 26,0 C 27,8 C 25,2 C 48 % 1012,2 hPa 0,0 l/m 0,63 h 0,00 h 499 W/m 7,8 km/h (2 Bft) 99,00 %
03.08.2020 16:00 25,8 C 26,8 C 24,5 C 49 % 1011,8 hPa 0,0 l/m 0,37 h 0,00 h 400 W/m 7,6 km/h (2 Bft) 96,79 %
03.08.2020 17:00 24,4 C 24,0 C 22,9 C 51 % 1011,6 hPa 0,0 l/m 0,10 h 0,00 h 178 W/m 5,7 km/h (1 Bft) 97,15 %
03.08.2020 18:00 24,0 C 23,5 C 21,1 C 55 % 1011,5 hPa 0,0 l/m 0,50 h 0,00 h 215 W/m 7,0 km/h (2 Bft) 97,61 %
03.08.2020 19:00 22,5 C 21,8 C 20,0 C 59 % 1011,7 hPa 0,0 l/m 0,47 h 0,00 h 150 W/m 10,7 km/h (2 Bft) 98,08 %
03.08.2020 20:00 20,9 C 19,4 C 19,2 C 67 % 1012,5 hPa 0,0 l/m 0,13 h 0,00 h 46 W/m 11,7 km/h (2 Bft) 97,47 %
03.08.2020 21:00 19,3 C 17,6 C 17,7 C 70 % 1013,0 hPa 0,0 l/m 0,00 h 0,00 h 6 W/m 6,5 km/h (2 Bft) 95,96 %
03.08.2020 22:00 18,1 C 16,0 C 16,1 C 73 % 1013,5 hPa 0,0 l/m 0,00 h 0,00 h 0 W/m 3,6 km/h (1 Bft) 97,79 %
03.08.2020 23:00 17,0 C 15,0 C 15,1 C 77 % 1014,1 hPa 0,0 l/m 0,00 h 0,00 h 0 W/m 2,6 km/h (1 Bft) 98,58 %
04.08.2020 00:00 16,2 C 14,6 C 15,0 C 82 % 1014,7 hPa 0,0 l/m 0,00 h 0,00 h 0 W/m 4,5 km/h (1 Bft) 93,77 %
04.08.2020 01:00 15,9 C 14,6 C 15,0 C 85 % 1015,2 hPa 0,0 l/m 0,00 h 0,00 h 0 W/m 4,1 km/h (1 Bft) 94,82 %
04.08.2020 02:00 15,6 C 14,2 C 14,7 C 86 % 1015,2 hPa 0,0 l/m 0,00 h 0,00 h 0 W/m 4,1 km/h (1 Bft) 99,57 %
04.08.2020 03:00 14,9 C 12,8 C 12,9 C 87 % 1015,2 hPa 0,0 l/m 0,00 h 0,00 h 0 W/m 1,1 km/h (0 Bft) 96,80 %
04.08.2020 04:00 13,9 C 11,9 C 12,1 C 89 % 1015,3 hPa 0,0 l/m 0,00 h 0,00 h 0 W/m 0,3 km/h (0 Bft) 97,88 %
04.08.2020 05:00 13,0 C 11,1 C 11,5 C 91 % 1015,7 hPa 0,0 l/m 0,00 h 0,00 h 0 W/m 0,5 km/h (0 Bft) 97,72 %
04.08.2020 06:00 12,4 C 11,2 C 11,2 C 92 % 1016,0 hPa 0,0 l/m 0,00 h 0,00 h 13 W/m 0,9 km/h (0 Bft) 95,77 %
04.08.2020 07:00 12,9 C 12,8 C 12,7 C 95 % 1016,5 hPa 0,0 l/m 0,00 h 0,00 h 37 W/m 3,4 km/h (1 Bft) 96,55 %
04.08.2020 08:00 14,0 C 17,2 C 14,4 C 96 % 1017,0 hPa 0,0 l/m 0,20 h 0,00 h 117 W/m 6,0 km/h (2 Bft) 97,72 %
04.08.2020 09:00 18,1 C 22,3 C 24,8 C 84 % 1017,4 hPa 0,0 l/m 0,80 h 0,00 h 387 W/m 6,6 km/h (2 Bft) 95,51 %
04.08.2020 10:00 20,3 C 24,4 C 28,5 C 73 % 1017,3 hPa 0,0 l/m 0,73 h 0,00 h 531 W/m 8,7 km/h (2 Bft) 99,64 %
04.08.2020 11:00 22,1 C 26,7 C 22,3 C 64 % 1017,3 hPa 0,0 l/m 0,80 h 0,00 h 677 W/m 9,4 km/h (2 Bft) 98,86 %
04.08.2020 12:00 23,6 C 28,6 C 22,3 C 55 % 1017,3 hPa 0,0 l/m 0,93 h 0,00 h 848 W/m 11,2 km/h (2 Bft) 96,22 %
04.08.2020 13:00 25,1 C 30,5 C 23,7 C 49 % 1017,4 hPa 0,0 l/m 1,00 h 0,00 h 992 W/m 11,4 km/h (2 Bft) 97,19 %
04.08.2020 14:00 25,6 C 29,9 C 26,9 C 48 % 1017,3 hPa 0,0 l/m 0,83 h 0,00 h 824 W/m 9,0 km/h (2 Bft) 98,21 %
04.08.2020 15:00 25,8 C 30,3 C 24,0 C 44 % 1017,2 hPa 0,0 l/m 1,00 h 0,00 h 864 W/m 10,6 km/h (2 Bft) 97,72 %
04.08.2020 16:00 26,2 C 29,7 C 24,1 C 41 % 1017,0 hPa 0,0 l/m 1,00 h 0,00 h 745 W/m 11,5 km/h (2 Bft) 96,53 %
04.08.2020 17:00 26,0 C 28,1 C 23,7 C 42 % 1016,9 hPa 0,0 l/m 0,98 h 0,00 h 587 W/m 10,4 km/h (2 Bft) 97,63 %
04.08.2020 18:00 25,4 C 26,2 C 22,4 C 43 % 1016,7 hPa 0,0 l/m 1,00 h 0,00 h 409 W/m 8,8 km/h (2 Bft) 98,41 %
04.08.2020 19:00 23,9 C 21,8 C 20,7 C 46 % 1016,7 hPa 0,0 l/m 0,30 h 0,00 h 109 W/m 6,0 km/h (2 Bft) 92,86 %
04.08.2020 20:00 21,7 C 19,0 C 18,2 C 52 % 1016,8 hPa 0,0 l/m 0,00 h 0,00 h 18 W/m 1,2 km/h (1 Bft) 96,09 %
04.08.2020 21:00 19,1 C 16,0 C 15,2 C 58 % 1017,0 hPa 0,0 l/m 0,00 h 0,00 h 4 W/m 0,0 km/h (0 Bft) 97,21 %
04.08.2020 22:00 17,2 C 14,8 C 14,3 C 64 % 1017,1 hPa 0,0 l/m 0,00 h 0,00 h 0 W/m 0,0 km/h (0 Bft) 98,86 %
04.08.2020 23:00 16,1 C 14,3 C 13,7 C 67 % 1017,0 hPa 0,0 l/m 0,00 h 0,00 h 0 W/m 0,7 km/h (0 Bft) 94,70 %
05.08.2020 00:00 15,8 C 15,4 C 14,4 C 70 % 1017,0 hPa 0,0 l/m 0,00 h 0,00 h 0 W/m 5,2 km/h (1 Bft) 97,53 %
05.08.2020 01:00 16,2 C 14,9 C 14,7 C 66 % 1016,9 hPa 0,0 l/m 0,00 h 0,00 h 0 W/m 6,1 km/h (2 Bft) 97,00 %
05.08.2020 02:00 15,6 C 14,0 C 14,0 C 68 % 1016,8 hPa 0,0 l/m 0,00 h 0,00 h 0 W/m 7,8 km/h (2 Bft) 96,73 %
05.08.2020 03:00 14,8 C 13,5 C 13,4 C 71 % 1016,6 hPa 0,0 l/m 0,00 h 0,00 h 0 W/m 6,5 km/h (2 Bft) 97,66 %
05.08.2020 04:00 14,2 C 12,9 C 12,8 C 74 % 1016,5 hPa 0,0 l/m 0,00 h 0,00 h 0 W/m 10,0 km/h (2 Bft) 96,17 %
05.08.2020 05:00 13,7 C 12,4 C 12,5 C 77 % 1016,6 hPa 0,0 l/m 0,00 h 0,00 h 0 W/m 12,6 km/h (3 Bft) 97,65 %
05.08.2020 06:00 13,3 C 12,2 C 12,2 C 79 % 1016,7 hPa 0,0 l/m 0,00 h 0,00 h 9 W/m 12,6 km/h (3 Bft) 97,46 %
05.08.2020 07:00 13,6 C 13,4 C 13,0 C 80 % 1017,0 hPa 0,0 l/m 0,00 h 0,00 h 21 W/m 11,7 km/h (2 Bft) 95,52 %
05.08.2020 08:00 15,7 C 18,6 C 15,2 C 75 % 1017,4 hPa 0,0 l/m 0,23 h 0,00 h 115 W/m 10,6 km/h (2 Bft) 97,15 %
05.08.2020 09:00 20,7 C 25,9 C 28,9 C 62 % 1017,8 hPa 0,0 l/m 1,00 h 0,00 h 485 W/m 13,4 km/h (3 Bft) 97,86 %
05.08.2020 10:00 24,8 C 29,2 C 34,5 C 50 % 1017,5 hPa 0,0 l/m 1,00 h 0,00 h 648 W/m 15,4 km/h (3 Bft) 95,09 %
05.08.2020 11:00 26,9 C 31,2 C 26,6 C 44 % 1017,2 hPa 0,0 l/m 1,00 h 0,00 h 779 W/m 16,7 km/h (3 Bft) 98,86 %
05.08.2020 12:00 28,4 C 33,1 C 27,1 C 41 % 1016,9 hPa 0,0 l/m 1,00 h 0,00 h 867 W/m 16,2 km/h (3 Bft) 98,38 %
05.08.2020 13:00 29,8 C 34,2 C 28,2 C 39 % 1016,6 hPa 0,0 l/m 1,00 h 0,00 h 906 W/m 15,3 km/h (3 Bft) 96,51 %
05.08.2020 14:00 29,9 C 34,1 C 31,1 C 37 % 1016,1 hPa 0,0 l/m 1,00 h 0,00 h 895 W/m 16,6 km/h (3 Bft) 97,94 %
05.08.2020 15:00 30,6 C 34,4 C 29,4 C 36 % 1015,7 hPa 0,0 l/m 1,00 h 0,00 h 834 W/m 17,1 km/h (3 Bft) 96,93 %
05.08.2020 16:00 31,5 C 34,6 C 30,0 C 35 % 1015,3 hPa 0,0 l/m 1,00 h 0,00 h 726 W/m 13,8 km/h (3 Bft) 97,65 %
05.08.2020 17:00 31,7 C 34,1 C 29,7 C 35 % 1015,2 hPa 0,0 l/m 1,00 h 0,00 h 575 W/m 11,8 km/h (2 Bft) 98,72 %
05.08.2020 18:00 32,0 C 32,3 C 28,0 C 35 % 1015,1 hPa 0,0 l/m 1,00 h 0,00 h 395 W/m 12,4 km/h (3 Bft) 96,15 %
05.08.2020 19:00 30,6 C 28,0 C 23,7 C 38 % 1015,0 hPa 0,0 l/m 0,27 h 0,00 h 99 W/m 7,4 km/h (2 Bft) 96,87 %
05.08.2020 20:00 27,6 C 24,3 C 20,2 C 50 % 1015,1 hPa 0,0 l/m 0,00 h 0,00 h 18 W/m 1,7 km/h (1 Bft) 99,50 %
05.08.2020 21:00 23,7 C 20,5 C 18,1 C 60 % 1015,5 hPa 0,0 l/m 0,00 h 0,00 h 6 W/m 0,4 km/h (0 Bft) 95,83 %
05.08.2020 22:00 21,5 C 18,9 C 17,2 C 63 % 1016,0 hPa 0,0 l/m 0,00 h 0,00 h 0 W/m 0,0 km/h (0 Bft) 97,01 %
05.08.2020 23:00 19,8 C 17,4 C 16,5 C 68 % 1016,3 hPa 0,0 l/m 0,00 h 0,00 h 0 W/m 0,0 km/h (0 Bft) 98,22 %
06.08.2020 00:00 19,4 C 19,0 C 18,0 C 66 % 1016,5 hPa 0,0 l/m 0,00 h 0,00 h 0 W/m 8,1 km/h (2 Bft) 96,62 %
06.08.2020 01:00 20,3 C 18,8 C 18,3 C 62 % 1016,8 hPa 0,0 l/m 0,00 h 0,00 h 0 W/m 6,9 km/h (2 Bft) 99,15 %
06.08.2020 02:00 19,6 C 18,3 C 17,8 C 63 % 1017,0 hPa 0,0 l/m 0,00 h 0,00 h 0 W/m 8,0 km/h (2 Bft) 95,58 %
06.08.2020 03:00 19,2 C 17,9 C 17,4 C 63 % 1017,4 hPa 0,0 l/m 0,00 h 0,00 h 0 W/m 8,0 km/h (2 Bft) 96,87 %
06.08.2020 04:00 18,9 C 17,8 C 17,2 C 63 % 1017,7 hPa 0,0 l/m 0,00 h 0,00 h 0 W/m 9,9 km/h (2 Bft) 99,07 %
06.08.2020 05:00 18,7 C 17,4 C 17,1 C 63 % 1018,0 hPa 0,0 l/m 0,00 h 0,00 h 0 W/m 9,6 km/h (2 Bft) 96,80 %
06.08.2020 06:00 18,3 C 17,2 C 16,7 C 65 % 1018,5 hPa 0,0 l/m 0,00 h 0,00 h 11 W/m 11,1 km/h (2 Bft) 96,61 %
06.08.2020 07:00 18,5 C 18,1 C 17,3 C 66 % 1018,9 hPa 0,0 l/m 0,00 h 0,00 h 25 W/m 12,0 km/h (2 Bft) 98,93 %
06.08.2020 08:00 19,9 C 22,3 C 19,0 C 64 % 1019,4 hPa 0,0 l/m 0,23 h 0,00 h 120 W/m 10,2 km/h (2 Bft) 97,15 %
06.08.2020 09:00 24,1 C 28,7 C 31,2 C 55 % 1019,9 hPa 0,0 l/m 1,00 h 0,00 h 466 W/m 13,2 km/h (3 Bft) 97,22 %
06.08.2020 10:00 27,2 C 31,7 C 36,2 C 49 % 1019,9 hPa 0,0 l/m 1,00 h 0,00 h 626 W/m 13,5 km/h (3 Bft) 99,15 %
06.08.2020 11:00 29,7 C 34,1 C 28,6 C 44 % 1019,9 hPa 0,0 l/m 1,00 h 0,00 h 759 W/m 15,4 km/h (3 Bft) 95,87 %
06.08.2020 12:00 30,9 C 35,4 C 28,9 C 40 % 1019,8 hPa 0,0 l/m 1,00 h 0,00 h 850 W/m 17,4 km/h (3 Bft) 98,12 %
06.08.2020 13:00 31,9 C 36,7 C 30,4 C 39 % 1019,5 hPa 0,0 l/m 1,00 h 0,00 h 888 W/m 15,0 km/h (3 Bft) 96,65 %
06.08.2020 14:00 32,6 C 36,8 C 32,9 C 38 % 1019,1 hPa 0,0 l/m 1,00 h 0,00 h 872 W/m 13,5 km/h (3 Bft) 98,43 %
06.08.2020 15:00 33,1 C 36,8 C 31,9 C 38 % 1018,9 hPa 0,0 l/m 1,00 h 0,00 h 813 W/m 12,7 km/h (3 Bft) 99,43 %
06.08.2020 16:00 33,7 C 36,6 C 32,1 C 38 % 1018,7 hPa 0,0 l/m 1,00 h 0,00 h 673 W/m 11,4 km/h (2 Bft) 96,65 %
06.08.2020 17:00 33,5 C 35,8 C 31,1 C 37 % 1018,6 hPa 0,0 l/m 1,00 h 0,00 h 558 W/m 10,4 km/h (2 Bft) 95,79 %
06.08.2020 18:00 34,1 C 34,6 C 29,3 C 36 % 1018,4 hPa 0,0 l/m 1,00 h 0,00 h 389 W/m 7,0 km/h (2 Bft) 99,08 %
06.08.2020 19:00 32,7 C 30,3 C 27,8 C 37 % 1018,3 hPa 0,0 l/m 0,23 h 0,00 h 92 W/m 7,3 km/h (2 Bft) 96,03 %
06.08.2020 20:00 29,9 C 26,2 C 24,5 C 52 % 1018,5 hPa 0,0 l/m 0,00 h 0,00 h 21 W/m 0,5 km/h (0 Bft) 98,29 %
06.08.2020 21:00 26,1 C 22,7 C 21,5 C 61 % 1018,8 hPa 0,0 l/m 0,00 h 0,00 h 6 W/m 0,0 km/h (0 Bft) 97,42 %
06.08.2020 22:00 23,7 C 20,9 C 20,1 C 63 % 1019,2 hPa 0,0 l/m 0,00 h 0,00 h 0 W/m 0,2 km/h (0 Bft) 97,05 %
06.08.2020 23:00 22,2 C 20,0 C 19,1 C 66 % 1019,4 hPa 0,0 l/m 0,00 h 0,00 h 0 W/m 0,0 km/h (0 Bft) 98,31 %
07.08.2020 00:00 21,0 C 18,7 C 18,0 C 68 % 1019,4 hPa 0,0 l/m 0,00 h 0,00 h 0 W/m 0,0 km/h (0 Bft) 98,60 %
07.08.2020 01:00 19,9 C 18,0 C 17,2 C 71 % 1019,4 hPa 0,0 l/m 0,00 h 0,00 h 0 W/m 0,3 km/h (0 Bft) 93,87 %
07.08.2020 02:00 19,0 C 16,8 C 16,4 C 74 % 1019,5 hPa 0,0 l/m 0,00 h 0,00 h 0 W/m 0,0 km/h (0 Bft) 99,36 %
07.08.2020 03:00 18,2 C 17,1 C 16,1 C 78 % 1019,5 hPa 0,0 l/m 0,00 h 0,00 h 0 W/m 1,9 km/h (1 Bft) 97,66 %
07.08.2020 04:00 18,2 C 17,4 C 16,3 C 78 % 1019,5 hPa 0,0 l/m 0,00 h 0,00 h 0 W/m 2,8 km/h (1 Bft) 97,14 %
07.08.2020 05:00 19,0 C 18,4 C 17,7 C 74 % 1019,7 hPa 0,0 l/m 0,00 h 0,00 h 0 W/m 7,1 km/h (2 Bft) 97,30 %
07.08.2020 06:00 19,4 C 18,5 C 17,9 C 72 % 1020,0 hPa 0,0 l/m 0,00 h 0,00 h 10 W/m 9,0 km/h (2 Bft) 96,95 %
07.08.2020 07:00 19,8 C 19,4 C 18,6 C 71 % 1020,4 hPa 0,0 l/m 0,00 h 0,00 h 23 W/m 8,5 km/h (2 Bft) 98,58 %
07.08.2020 08:00 21,5 C 23,8 C 20,6 C 67 % 1020,6 hPa 0,0 l/m 0,27 h 0,00 h 122 W/m 11,9 km/h (2 Bft) 96,94 %
07.08.2020 09:00 26,0 C 30,7 C 32,9 C 59 % 1020,7 hPa 0,0 l/m 1,00 h 0,00 h 466 W/m 11,7 km/h (2 Bft) 95,82 %
07.08.2020 10:00 29,6 C 34,4 C 37,6 C 51 % 1020,6 hPa 0,0 l/m 0,97 h 0,00 h 627 W/m 9,6 km/h (2 Bft) 99,93 %
07.08.2020 11:00 32,4 C 37,4 C 30,1 C 44 % 1020,5 hPa 0,0 l/m 1,03 h 0,00 h 763 W/m 11,3 km/h (2 Bft) 96,47 %
07.08.2020 12:00 34,0 C 39,1 C 30,8 C 41 % 1020,1 hPa 0,0 l/m 1,00 h 0,00 h 847 W/m 10,7 km/h (2 Bft) 96,85 %
07.08.2020 13:00 34,6 C 39,3 C 32,6 C 38 % 1019,7 hPa 0,0 l/m 1,00 h 0,00 h 887 W/m 12,9 km/h (3 Bft) 97,73 %
07.08.2020 14:00 35,3 C 39,8 C 35,2 C 35 % 1019,4 hPa 0,0 l/m 1,00 h 0,00 h 885 W/m 12,7 km/h (3 Bft) 98,07 %
07.08.2020 15:00 36,0 C 40,0 C 34,3 C 35 % 1018,9 hPa 0,0 l/m 1,00 h 0,00 h 818 W/m 11,1 km/h (2 Bft) 96,56 %
07.08.2020 16:00 36,2 C 39,5 C 34,2 C 34 % 1018,6 hPa 0,0 l/m 1,00 h 0,00 h 710 W/m 9,9 km/h (2 Bft) 96,97 %
07.08.2020 17:00 36,8 C 39,0 C 33,5 C 35 % 1018,2 hPa 0,0 l/m 1,00 h 0,00 h 552 W/m 7,8 km/h (2 Bft) 96,99 %
07.08.2020 18:00 36,4 C 36,5 C 30,9 C 37 % 1017,9 hPa 0,0 l/m 1,00 h 0,00 h 373 W/m 4,6 km/h (1 Bft) 95,59 %
07.08.2020 19:00 34,3 C 31,2 C 25,6 C 41 % 1017,7 hPa 0,0 l/m 0,20 h 0,00 h 88 W/m 2,3 km/h (1 Bft) 95,20 %
07.08.2020 20:00 30,6 C 27,3 C 23,0 C 50 % 1017,8 hPa 0,0 l/m 0,00 h 0,00 h 21 W/m 1,1 km/h (0 Bft) 98,65 %
07.08.2020 21:00 27,4 C 24,3 C 21,2 C 55 % 1018,1 hPa 0,0 l/m 0,00 h 0,00 h 5 W/m 0,3 km/h (0 Bft) 97,29 %
07.08.2020 22:00 25,3 C 23,1 C 20,6 C 55 % 1018,4 hPa 0,0 l/m 0,00 h 0,00 h 0 W/m 0,1 km/h (0 Bft) 96,80 %
07.08.2020 23:00 24,0 C 21,4 C 19,7 C 60 % 1018,6 hPa 0,0 l/m 0,00 h 0,00 h 0 W/m 0,0 km/h (0 Bft) 97,88 %
08.08.2020 00:00 22,4 C 20,1 C 18,9 C 64 % 1018,7 hPa 0,0 l/m 0,00 h 0,00 h 0 W/m 0,0 km/h (0 Bft) 94,94 %
08.08.2020 01:00 21,2 C 19,1 C 18,1 C 66 % 1018,7 hPa 0,0 l/m 0,00 h 0,00 h 0 W/m 0,0 km/h (0 Bft) 96,33 %
08.08.2020 02:00 20,2 C 18,2 C 17,4 C 68 % 1018,6 hPa 0,0 l/m 0,00 h 0,00 h 0 W/m 0,0 km/h (0 Bft) 96,86 %
08.08.2020 03:00 19,3 C 17,4 C 16,9 C 72 % 1018,6 hPa 0,0 l/m 0,00 h 0,00 h 0 W/m 0,0 km/h (0 Bft) 98,13 %
08.08.2020 04:00 18,5 C 16,6 C 16,2 C 75 % 1018,6 hPa 0,0 l/m 0,00 h 0,00 h 0 W/m 0,0 km/h (0 Bft) 98,93 %
08.08.2020 05:00 17,8 C 16,3 C 15,8 C 79 % 1018,8 hPa 0,0 l/m 0,00 h 0,00 h 0 W/m 0,2 km/h (0 Bft) 93,88 %
08.08.2020 06:00 17,3 C 16,0 C 15,6 C 82 % 1019,1 hPa 0,0 l/m 0,00 h 0,00 h 11 W/m 0,0 km/h (0 Bft) 98,68 %
08.08.2020 07:00 17,3 C 18,0 C 16,5 C 86 % 1019,5 hPa 0,0 l/m 0,00 h 0,00 h 26 W/m 2,0 km/h (1 Bft) 98,15 %
08.08.2020 08:00 20,4 C 24,2 C 20,3 C 79 % 1019,5 hPa 0,0 l/m 0,27 h 0,00 h 127 W/m 7,9 km/h (2 Bft) 96,80 %
08.08.2020 09:00 26,4 C 32,2 C 34,1 C 62 % 1019,6 hPa 0,0 l/m 1,00 h 0,00 h 454 W/m 8,5 km/h (2 Bft) 98,36 %
08.08.2020 10:00 30,8 C 36,2 C 38,8 C 52 % 1019,6 hPa 0,0 l/m 1,00 h 0,00 h 617 W/m 5,1 km/h (1 Bft) 96,59 %
08.08.2020 11:00 33,5 C 38,9 C 29,8 C 49 % 1019,4 hPa 0,0 l/m 1,00 h 0,00 h 752 W/m 5,4 km/h (1 Bft) 99,00 %
08.08.2020 12:00 35,6 C 41,1 C 31,5 C 42 % 1019,1 hPa 0,0 l/m 1,00 h 0,00 h 841 W/m 6,4 km/h (2 Bft) 96,35 %
08.08.2020 13:00 37,1 C 42,3 C 33,5 C 38 % 1018,8 hPa 0,0 l/m 1,00 h 0,00 h 878 W/m 7,6 km/h (2 Bft) 95,95 %
08.08.2020 14:00 37,8 C 42,3 C 36,9 C 36 % 1018,4 hPa 0,0 l/m 1,00 h 0,00 h 868 W/m 9,6 km/h (2 Bft) 99,29 %
08.08.2020 15:00 38,2 C 42,3 C 35,2 C 36 % 1018,1 hPa 0,0 l/m 1,00 h 0,00 h 789 W/m 7,6 km/h (2 Bft) 98,73 %
08.08.2020 16:00 38,5 C 41,2 C 35,5 C 35 % 1017,8 hPa 0,0 l/m 1,00 h 0,00 h 663 W/m 7,2 km/h (2 Bft) 99,72 %
08.08.2020 17:00 38,5 C 40,1 C 34,4 C 35 % 1017,5 hPa 0,0 l/m 1,00 h 0,00 h 524 W/m 6,6 km/h (2 Bft) 96,44 %
08.08.2020 18:00 37,5 C 37,3 C 32,1 C 36 % 1017,3 hPa 0,0 l/m 1,00 h 0,00 h 357 W/m 8,1 km/h (2 Bft) 99,56 %
08.08.2020 19:00 35,0 C 32,3 C 29,9 C 39 % 1017,2 hPa 0,0 l/m 0,17 h 0,00 h 83 W/m 5,6 km/h (1 Bft) 98,36 %
08.08.2020 20:00 32,3 C 29,5 C 27,9 C 42 % 1017,4 hPa 0,0 l/m 0,00 h 0,00 h 18 W/m 3,9 km/h (1 Bft) 96,25 %
08.08.2020 21:00 30,1 C 27,1 C 25,7 C 45 % 1017,7 hPa 0,0 l/m 0,00 h 0,00 h 0 W/m 0,9 km/h (0 Bft) 97,15 %
08.08.2020 22:00 28,1 C 25,7 C 24,1 C 50 % 1017,9 hPa 0,0 l/m 0,00 h 0,00 h 0 W/m 1,8 km/h (1 Bft) 98,01 %
08.08.2020 23:00 27,0 C 25,0 C 23,7 C 55 % 1017,8 hPa 0,0 l/m 0,00 h 0,00 h 0 W/m 1,3 km/h (1 Bft) 97,70 %
09.08.2020 00:00 26,0 C 23,7 C 22,7 C 59 % 1017,8 hPa 0,0 l/m 0,00 h 0,00 h 0 W/m 1,0 km/h (0 Bft) 96,26 %
09.08.2020 01:00 24,9 C 23,2 C 22,2 C 65 % 1017,6 hPa 0,0 l/m 0,00 h 0,00 h 0 W/m 3,2 km/h (1 Bft) 98,39 %
09.08.2020 02:00 24,5 C 22,8 C 21,7 C 68 % 1017,3 hPa 0,0 l/m 0,00 h 0,00 h 0 W/m 0,6 km/h (0 Bft) 98,24 %
09.08.2020 03:00 23,7 C 21,5 C 21,0 C 72 % 1017,2 hPa 0,0 l/m 0,00 h 0,00 h 0 W/m 0,4 km/h (0 Bft) 95,50 %
09.08.2020 04:00 22,8 C 21,0 C 20,6 C 76 % 1017,2 hPa 0,0 l/m 0,00 h 0,00 h 0 W/m 1,1 km/h (0 Bft) 99,15 %
09.08.2020 05:00 22,3 C 20,9 C 20,5 C 78 % 1017,2 hPa 0,0 l/m 0,00 h 0,00 h 0 W/m 0,3 km/h (0 Bft) 98,57 %
09.08.2020 06:00 22,2 C 21,6 C 20,8 C 81 % 1017,1 hPa 0,0 l/m 0,00 h 0,00 h 7 W/m 0,9 km/h (0 Bft) 95,09 %
09.08.2020 07:00 22,5 C 22,1 C 21,2 C 82 % 1017,4 hPa 0,0 l/m 0,00 h 0,00 h 27 W/m 1,4 km/h (1 Bft) 99,57 %
09.08.2020 08:00 23,1 C 23,1 C 22,2 C 82 % 1017,4 hPa 0,0 l/m 0,00 h 0,00 h 69 W/m 1,3 km/h (1 Bft) 98,14 %
09.08.2020 09:00 24,1 C 25,7 C 24,2 C 81 % 1017,5 hPa 0,0 l/m 0,07 h 0,00 h 166 W/m 2,1 km/h (1 Bft) 95,58 %
09.08.2020 10:00 26,0 C 27,6 C 25,8 C 73 % 1017,5 hPa 0,0 l/m 0,07 h 0,00 h 199 W/m 1,7 km/h (1 Bft) 99,20 %
09.08.2020 11:00 27,7 C 29,3 C 27,2 C 67 % 1017,4 hPa 0,0 l/m 0,00 h 0,07 h 258 W/m 3,7 km/h (1 Bft) 98,16 %
09.08.2020 12:00 28,2 C 27,6 C 26,3 C 71 % 1017,2 hPa 0,0 l/m 0,00 h 0,07 h 163 W/m 3,5 km/h (1 Bft) 95,89 %
09.08.2020 13:00 27,8 C 30,2 C 26,1 C 76 % 1016,7 hPa 0,0 l/m 0,37 h 0,23 h 438 W/m 3,3 km/h (1 Bft) 96,80 %
09.08.2020 14:00 32,6 C 38,6 C 32,7 C 55 % 1016,5 hPa 0,0 l/m 1,00 h 0,00 h 769 W/m 6,8 km/h (2 Bft) 98,81 %
09.08.2020 15:00 34,3 C 37,4 C 31,7 C 49 % 1016,4 hPa 0,0 l/m 0,70 h 0,00 h 587 W/m 8,6 km/h (2 Bft) 97,59 %
09.08.2020 16:00 34,3 C 35,0 C 31,4 C 50 % 1015,8 hPa 0,0 l/m 0,50 h 0,00 h 362 W/m 4,7 km/h (1 Bft) 99,65 %
09.08.2020 17:00 34,7 C 37,2 C 32,0 C 49 % 1015,2 hPa 0,0 l/m 0,93 h 0,00 h 467 W/m 5,9 km/h (2 Bft) 94,30 %
09.08.2020 18:00 35,7 C 35,3 C 30,7 C 46 % 1014,6 hPa 0,0 l/m 0,67 h 0,00 h 288 W/m 5,0 km/h (1 Bft) 97,39 %
09.08.2020 19:00 33,0 C 30,4 C 28,7 C 49 % 1014,9 hPa 0,0 l/m 0,00 h 0,00 h 39 W/m 16,0 km/h (3 Bft) 98,17 %
09.08.2020 20:00 30,1 C 27,6 C 27,0 C 54 % 1015,4 hPa 0,0 l/m 0,00 h 0,00 h 24 W/m 10,1 km/h (2 Bft) 97,07 %
09.08.2020 21:00 28,1 C 25,2 C 24,6 C 59 % 1015,7 hPa 0,0 l/m 0,00 h 0,00 h 5 W/m 3,0 km/h (1 Bft) 96,49 %
09.08.2020 22:00 26,3 C 23,7 C 22,8 C 66 % 1015,5 hPa 0,0 l/m 0,00 h 0,00 h 0 W/m 1,3 km/h (1 Bft) 96,36 %
09.08.2020 23:00 24,5 C 21,8 C 21,1 C 71 % 1015,1 hPa 0,0 l/m 0,00 h 0,00 h 0 W/m 0,5 km/h (0 Bft) 98,37 %
Min-Datum _ 03.08.20 03.08.20 03.08.20 07.08.20 03.08.20 - - - - 03.08.20 08.08.20
_ Min-Zeit 06:30 05:34 05:40 16:24 18:16 - - - - 00:00 00:02
Minimum _ 11,1 C 9,4 C 9,4 C 32 % 1011,4 hPa - - - - 0,0 km/h (0 Bft) 6,67 %
Max-Datum _ 08.08.20 08.08.20 08.08.20 03.08.20 07.08.20 03.08.20 04.08.20 09.08.20 04.08.20 08.08.20 03.08.20
_ Max-Zeit 17:06 14:16 14:08 08:24 08:58 00:00 17:16 11:48 13:50 18:46 00:22
Maximum _ 38,7 C 43,9 C 41,1 C 97 % 1020,7 hPa 0,0 l/m 0,08 h 0,03 h 1044 W/m 38,6 km/h
W (5 Bft)
100,00 %
Durchschnitt _ 24,2 C 24,8 C 22,7 C 61 % 1017,1 hPa #0,0 l/m #63:55 h #22 min. 409 W/m 6,2 km/h (2 Bft) 97,33 %
© 2020 W. Hausmann